Terminal Aerodrome Forecast
Issued by NWS

Current Version | Previous Version | Graphics & Text | Print | Product List | Glossary On
Versions: 1 2 3 4 5 6 7 8 9 10 11 12 13 14 15 16 17 18 19 20 21 22
000
FTUS41 KILN 201700 RRA
TAFLUK
TAF
KLUK 201745Z 2018/2118 26014G22KT P6SM BKN040
     FM202200 26011G18KT P6SM BKN045
     FM210200 26007KT P6SM SCT050
     FM210600 VRB03KT P6SM SKC
     FM211500 12004KT P6SM SCT250=

USA.gov is the U.S. government's official web portal to all federal, state and local government web resources and services.